Time;durP1;ratioP1;P1;durP2;ratioP2;P2;SDS_P1;SDS_P2;PMS_P1;PMS_P2;Temp;Humidity;BMP_temperature;BMP_pressure;BME280_temperature;BME280_humidity;BME280_pressure;Samples;Min_cycle;Max_cycle;Signal;HPM_P1;HPM_P2
2023/06/19 00:02:00;;;;;;;10.23;7.78;;;20.90;75.60;;;;;;5074790;28;20012;-53
2023/06/19 00:04:26;;;;;;;9.05;7.05;;;20.90;75.50;;;;;;5072978;28;20571;-54
2023/06/19 00:06:55;;;;;;;8.93;8.02;;;20.90;76.80;;;;;;5078030;28;20512;-54
2023/06/19 00:09:24;;;;;;;11.20;8.30;;;20.90;75.90;;;;;;5076129;28;20131;-56
2023/06/19 00:11:50;;;;;;;9.20;7.32;;;20.90;76.10;;;;;;5070589;28;20024;-54
2023/06/19 00:14:17;;;;;;;8.70;7.78;;;20.80;77.00;;;;;;5067731;28;20024;-54
2023/06/19 00:16:46;;;;;;;9.60;7.45;;;20.80;77.50;;;;;;5068173;28;20031;-55
2023/06/19 00:19:14;;;;;;;9.82;7.65;;;20.80;76.70;;;;;;5079857;28;20459;-53
2023/06/19 00:21:43;;;;;;;8.45;7.38;;;20.80;77.60;;;;;;5078358;28;20024;-52
2023/06/19 00:24:09;;;;;;;10.07;6.85;;;20.70;77.40;;;;;;5078530;28;20025;-52
2023/06/19 00:26:38;;;;;;;9.55;8.15;;;20.70;77.00;;;;;;5069324;28;20412;-52
2023/06/19 00:29:04;;;;;;;8.23;7.43;;;20.70;77.00;;;;;;5082939;28;20024;-51
2023/06/19 00:31:30;;;;;;;10.88;8.07;;;20.70;76.80;;;;;;5072166;28;20024;-53
2023/06/19 00:33:56;;;;;;;8.70;7.80;;;20.70;77.50;;;;;;5071937;28;20020;-53
2023/06/19 00:36:25;;;;;;;9.73;8.13;;;20.70;76.90;;;;;;5074027;28;20101;-51
2023/06/19 00:38:52;;;;;;;8.73;7.47;;;20.70;76.50;;;;;;5079547;28;20172;-54
2023/06/19 00:41:18;;;;;;;9.77;7.57;;;20.60;76.60;;;;;;5078516;28;20093;-52
2023/06/19 00:43:44;;;;;;;9.38;8.10;;;20.60;77.10;;;;;;5076524;28;20020;-52
2023/06/19 00:46:11;;;;;;;13.63;8.50;;;20.60;76.30;;;;;;5068706;28;20016;-54
2023/06/19 00:48:38;;;;;;;8.57;7.78;;;20.60;76.60;;;;;;5077861;28;20027;-53
2023/06/19 00:51:03;;;;;;;8.95;7.47;;;20.60;76.80;;;;;;5073760;28;20020;-54
2023/06/19 00:53:32;;;;;;;9.80;7.65;;;20.50;77.60;;;;;;5073596;28;20418;-53
2023/06/19 00:55:58;;;;;;;9.80;7.90;;;20.50;77.50;;;;;;5072868;28;20024;-54
2023/06/19 00:58:24;;;;;;;8.73;7.75;;;20.40;77.60;;;;;;5073833;28;20508;-54
2023/06/19 01:00:50;;;;;;;9.93;7.82;;;20.40;78.10;;;;;;5077438;28;20059;-54
2023/06/19 01:03:16;;;;;;;9.98;7.85;;;20.30;78.60;;;;;;5069368;28;20606;-54
2023/06/19 01:05:44;;;;;;;10.05;7.82;;;20.30;79.50;;;;;;5050403;28;20394;-56
2023/06/19 01:08:35;;;;;;;8.93;7.20;;;20.20;79.90;;;;;;5074123;28;20059;-55
2023/06/19 01:11:03;;;;;;;8.88;7.97;;;20.10;81.60;;;;;;5069299;28;20347;-55
2023/06/19 01:13:34;;;;;;;9.32;8.00;;;20.00;81.20;;;;;;5068989;28;20477;-56
2023/06/19 01:16:02;;;;;;;9.48;7.85;;;20.10;80.70;;;;;;5059244;28;20021;-54
2023/06/19 01:18:29;;;;;;;10.23;8.60;;;20.10;79.90;;;;;;5068645;28;20027;-54
2023/06/19 01:20:55;;;;;;;11.55;8.75;;;20.10;79.20;;;;;;5067132;28;20039;-53
2023/06/19 01:23:21;;;;;;;9.20;7.85;;;20.10;79.20;;;;;;5075393;28;20032;-54
2023/06/19 01:25:46;;;;;;;10.38;8.32;;;20.20;79.70;;;;;;5069880;28;20064;-55
2023/06/19 01:28:12;;;;;;;10.15;7.90;;;20.20;80.00;;;;;;5068476;28;20044;-55
2023/06/19 01:30:42;;;;;;;9.25;8.25;;;20.10;80.20;;;;;;5068690;28;20025;-54
2023/06/19 01:33:11;;;;;;;12.88;8.73;;;20.10;80.90;;;;;;5063403;28;20042;-54
2023/06/19 01:35:41;;;;;;;9.00;8.00;;;20.10;81.70;;;;;;5068367;28;20085;-54
2023/06/19 01:38:07;;;;;;;;;;;20.10;81.40;;;;;;5073620;28;20379;-55
2023/06/19 01:40:33;;;;;;;8.77;7.88;;;20.10;81.20;;;;;;5072771;28;19915;-54
2023/06/19 01:43:00;;;;;;;11.18;8.13;;;20.10;81.50;;;;;;5069112;28;20071;-54
2023/06/19 01:45:28;;;;;;;11.68;8.25;;;20.10;82.60;;;;;;5069618;28;20050;-54
2023/06/19 01:47:54;;;;;;;10.35;8.07;;;20.10;81.10;;;;;;5084437;28;20024;-55
2023/06/19 01:50:22;;;;;;;9.73;7.50;;;20.00;81.70;;;;;;5066931;28;20531;-53
2023/06/19 01:52:47;;;;;;;10.52;8.05;;;20.10;81.90;;;;;;5075027;28;20016;-54
2023/06/19 01:55:13;;;;;;;9.70;8.70;;;20.10;81.00;;;;;;5075330;28;20426;-54
2023/06/19 01:57:39;;;;;;;9.07;8.18;;;20.10;80.90;;;;;;5068455;28;20320;-54
2023/06/19 02:00:10;;;;;;;12.00;8.68;;;20.10;81.60;;;;;;5075880;28;20043;-54
2023/06/19 02:02:36;;;;;;;11.30;8.30;;;20.10;81.00;;;;;;5076544;28;20031;-54
2023/06/19 02:05:02;;;;;;;9.52;8.52;;;20.10;81.70;;;;;;5076118;28;20020;-53
2023/06/19 02:07:28;;;;;;;8.80;7.63;;;20.10;82.30;;;;;;5075889;28;20401;-54
2023/06/19 02:09:54;;;;;;;9.85;8.10;;;20.10;82.50;;;;;;5068095;28;20521;-54
2023/06/19 02:12:19;;;;;;;12.73;8.25;;;20.10;81.20;;;;;;5076457;28;20088;-54
2023/06/19 02:14:45;;;;;;;9.10;8.07;;;20.10;81.30;;;;;;5067986;28;20027;-52
2023/06/19 02:17:11;;;;;;;11.43;9.25;;;20.00;81.90;;;;;;5067668;28;20108;-53
2023/06/19 02:19:36;;;;;;;9.82;8.55;;;20.10;80.20;;;;;;5066806;28;20482;-54
2023/06/19 02:22:02;;;;;;;9.73;8.35;;;20.00;80.30;;;;;;5076425;28;20597;-52
2023/06/19 02:24:27;;;;;;;10.40;8.05;;;20.10;83.20;;;;;;5075453;28;20016;-52
2023/06/19 02:26:53;;;;;;;10.95;8.60;;;20.00;81.30;;;;;;5077231;28;20035;-52
2023/06/19 02:29:19;;;;;;;11.43;9.00;;;20.00;81.20;;;;;;5067944;28;20453;-52
2023/06/19 02:31:45;;;;;;;9.90;8.50;;;20.00;81.30;;;;;;5067648;28;20044;-54
2023/06/19 02:34:11;;;;;;;10.43;9.00;;;20.00;80.80;;;;;;5066381;28;20071;-53
2023/06/19 02:36:36;;;;;;;10.20;8.95;;;20.00;81.20;;;;;;5074858;28;20028;-53
2023/06/19 02:39:05;;;;;;;11.68;8.65;;;20.00;80.70;;;;;;5092409;28;20017;-53
2023/06/19 02:41:30;;;;;;;11.02;8.70;;;20.10;82.20;;;;;;5084339;28;20430;-52
2023/06/19 02:43:56;;;;;;;9.93;8.60;;;20.00;82.10;;;;;;5082673;28;20028;-53
2023/06/19 02:46:21;;;;;;;10.27;8.40;;;20.10;81.10;;;;;;5080718;28;20104;-53
2023/06/19 02:48:47;;;;;;;9.18;8.27;;;20.00;81.00;;;;;;5073040;28;20103;-53
2023/06/19 02:51:12;;;;;;;9.25;8.25;;;20.10;81.60;;;;;;5078534;28;20100;-53
2023/06/19 02:53:38;;;;;;;10.70;8.68;;;20.10;81.20;;;;;;5071546;28;20443;-53
2023/06/19 02:56:04;;;;;;;10.00;8.60;;;20.10;81.40;;;;;;5082284;28;20076;-53
2023/06/19 02:58:31;;;;;;;9.95;8.00;;;20.00;81.00;;;;;;5076051;28;20016;-54
2023/06/19 03:00:56;;;;;;;9.57;8.20;;;20.10;81.40;;;;;;5071365;28;20082;-52
2023/06/19 03:03:22;;;;;;;14.85;8.73;;;20.10;81.10;;;;;;5077419;28;20024;-53
2023/06/19 03:05:48;;;;;;;9.13;8.13;;;20.10;81.40;;;;;;5077584;28;20258;-53
2023/06/19 03:08:13;;;;;;;12.55;8.23;;;20.10;81.50;;;;;;5081451;28;20055;-53
2023/06/19 03:10:39;;;;;;;8.57;7.63;;;20.10;81.90;;;;;;5080791;28;20031;-53
2023/06/19 03:13:05;;;;;;;8.95;7.97;;;20.10;81.30;;;;;;5082015;28;20025;-54
2023/06/19 03:15:30;;;;;;;11.07;9.02;;;20.10;81.10;;;;;;5079936;28;20135;-53
2023/06/19 03:17:56;;;;;;;9.32;8.38;;;20.10;80.90;;;;;;5071912;28;20390;-53
2023/06/19 03:20:21;;;;;;;9.35;8.32;;;20.10;81.30;;;;;;5082173;28;20247;-53
2023/06/19 03:22:47;;;;;;;9.15;8.02;;;20.10;83.50;;;;;;5080896;28;20032;-53
2023/06/19 03:25:13;;;;;;;11.32;8.75;;;20.10;81.90;;;;;;5079214;28;20016;-54
2023/06/19 03:27:38;;;;;;;12.73;8.55;;;20.20;81.40;;;;;;5081457;28;20024;-54
2023/06/19 03:30:06;;;;;;;10.52;8.52;;;20.10;81.10;;;;;;5080388;28;20466;-54
2023/06/19 03:32:33;;;;;;;18.38;7.93;;;20.20;81.40;;;;;;5082167;28;20013;-54
2023/06/19 03:34:58;;;;;;;8.98;8.07;;;20.20;81.40;;;;;;5082486;28;20735;-54
2023/06/19 03:37:24;;;;;;;10.88;8.20;;;20.20;81.60;;;;;;5083167;28;20097;-54
2023/06/19 03:39:49;;;;;;;9.82;8.00;;;20.20;81.60;;;;;;5079391;28;20029;-54
2023/06/19 03:42:15;;;;;;;8.88;7.88;;;20.30;81.40;;;;;;5079050;28;20024;-54
2023/06/19 03:44:40;;;;;;;10.00;8.23;;;20.30;82.10;;;;;;5079203;28;20025;-54
2023/06/19 03:47:06;;;;;;;11.35;8.00;;;20.30;81.70;;;;;;5076164;28;20400;-54
2023/06/19 03:49:32;;;;;;;10.93;8.30;;;20.30;82.20;;;;;;5070835;28;20027;-54
2023/06/19 03:51:57;;;;;;;9.55;8.10;;;20.30;81.70;;;;;;5068896;28;20055;-53
2023/06/19 03:54:23;;;;;;;9.40;8.30;;;20.30;82.20;;;;;;5070442;28;20024;-53
2023/06/19 03:56:48;;;;;;;9.73;8.35;;;20.30;81.50;;;;;;5069957;28;20111;-53
2023/06/19 03:59:14;;;;;;;11.30;7.82;;;20.30;82.70;;;;;;5073802;28;20058;-54
2023/06/19 04:01:40;;;;;;;9.05;7.82;;;20.30;82.00;;;;;;5072881;28;20017;-53
2023/06/19 04:04:06;;;;;;;8.80;7.90;;;20.30;82.00;;;;;;5062105;28;20478;-53
2023/06/19 04:06:31;;;;;;;8.63;7.40;;;20.30;83.30;;;;;;5069627;28;20024;-54
2023/06/19 04:08:57;;;;;;;12.95;8.80;;;20.30;83.90;;;;;;5070061;28;20020;-53
2023/06/19 04:11:23;;;;;;;9.55;7.70;;;20.30;82.70;;;;;;5076099;28;20024;-52
2023/06/19 04:13:49;;;;;;;10.88;8.27;;;20.30;83.20;;;;;;5088949;28;20012;-52
2023/06/19 04:16:15;;;;;;;13.60;7.80;;;20.30;82.90;;;;;;5074541;28;20023;-53
2023/06/19 04:18:41;;;;;;;9.10;8.10;;;20.30;83.20;;;;;;5082218;28;20019;-53
2023/06/19 04:21:07;;;;;;;10.23;7.80;;;20.30;83.50;;;;;;5070084;28;20092;-52
2023/06/19 04:23:33;;;;;;;9.50;7.70;;;20.30;85.50;;;;;;5070372;28;20024;-55
2023/06/19 04:26:02;;;;;;;12.40;8.38;;;20.30;84.00;;;;;;5068259;28;20036;-55
2023/06/19 04:28:28;;;;;;;10.25;8.25;;;20.30;84.00;;;;;;5078353;28;20078;-55
2023/06/19 04:30:59;;;;;;;10.02;7.95;;;20.40;82.40;;;;;;5069462;28;20028;-58
2023/06/19 04:33:27;;;;;;;9.18;7.78;;;20.40;82.20;;;;;;5069868;28;20107;-55
2023/06/19 04:35:52;;;;;;;11.23;8.70;;;20.40;83.30;;;;;;5070867;28;20514;-55
2023/06/19 04:38:18;;;;;;;11.52;8.40;;;20.50;81.70;;;;;;5076584;28;20048;-55
2023/06/19 04:40:45;;;;;;;8.65;7.68;;;20.50;81.90;;;;;;5077047;28;20035;-55
2023/06/19 04:43:12;;;;;;;9.05;8.15;;;20.50;81.70;;;;;;5082030;28;20032;-55
2023/06/19 04:45:39;;;;;;;9.60;7.57;;;20.60;81.30;;;;;;5072112;28;20115;-55
2023/06/19 04:48:04;;;;;;;10.93;7.70;;;20.60;82.60;;;;;;5070815;28;20097;-55
2023/06/19 04:50:30;;;;;;;10.32;7.13;;;20.60;81.80;;;;;;5074851;28;20376;-55
2023/06/19 04:52:56;;;;;;;8.43;7.38;;;20.60;82.30;;;;;;5067784;28;20363;-55
2023/06/19 04:55:21;;;;;;;8.57;7.50;;;20.70;82.20;;;;;;5075167;28;20028;-55
2023/06/19 04:57:47;;;;;;;9.00;7.57;;;20.70;83.10;;;;;;5083078;28;20492;-55
2023/06/19 05:00:14;;;;;;;8.55;7.25;;;20.70;84.80;;;;;;5067503;28;20016;-55
2023/06/19 05:02:43;;;;;;;10.82;7.32;;;20.70;85.20;;;;;;5069039;28;20042;-55
2023/06/19 05:05:09;;;;;;;9.88;7.80;;;20.70;85.80;;;;;;5066136;28;20625;-55
2023/06/19 05:07:35;;;;;;;18.65;8.48;;;20.70;85.40;;;;;;5067308;28;20028;-55
2023/06/19 05:10:00;;;;;;;11.20;8.40;;;20.70;84.90;;;;;;5068720;28;20043;-55
2023/06/19 05:12:26;;;;;;;9.05;7.05;;;20.70;87.70;;;;;;5068751;28;20038;-55
2023/06/19 05:14:51;;;;;;;10.07;7.63;;;20.70;87.40;;;;;;5068332;28;20021;-55
2023/06/19 05:17:17;;;;;;;10.32;8.38;;;20.70;90.70;;;;;;5067599;28;20021;-55
2023/06/19 05:19:42;;;;;;;11.60;7.60;;;20.60;91.00;;;;;;5068564;28;20036;-55
2023/06/19 05:22:08;;;;;;;10.02;8.38;;;20.70;91.40;;;;;;5068664;28;20025;-55
2023/06/19 05:24:33;;;;;;;13.15;10.18;;;20.60;92.50;;;;;;5077293;28;20425;-55
2023/06/19 05:26:59;;;;;;;11.63;9.88;;;20.60;93.10;;;;;;5075048;28;20020;-55
2023/06/19 05:29:25;;;;;;;13.63;9.02;;;20.50;93.10;;;;;;5067771;28;20024;-55
2023/06/19 05:31:51;;;;;;;13.05;9.00;;;20.50;93.00;;;;;;5066969;28;20048;-55
2023/06/19 05:34:17;;;;;;;9.68;8.68;;;20.50;91.20;;;;;;5068133;28;20031;-55
2023/06/19 05:36:45;;;;;;;11.18;8.68;;;20.50;90.80;;;;;;5067764;28;20024;-55
2023/06/19 05:39:10;;;;;;;11.90;8.48;;;20.50;92.20;;;;;;5067764;28;20013;-55
2023/06/19 05:41:36;;;;;;;14.35;8.75;;;20.50;90.70;;;;;;5068049;28;20036;-55
2023/06/19 05:44:01;;;;;;;10.13;8.38;;;20.50;91.00;;;;;;5068252;28;20033;-55
2023/06/19 05:46:27;;;;;;;13.48;8.60;;;20.60;91.30;;;;;;5074272;28;20020;-55
2023/06/19 05:48:54;;;;;;;11.73;8.45;;;20.60;90.10;;;;;;5079566;28;20422;-55
2023/06/19 05:51:20;;;;;;;10.02;8.88;;;20.60;90.50;;;;;;5076652;28;20029;-55
2023/06/19 05:53:46;;;;;;;14.48;9.25;;;20.60;90.00;;;;;;5081184;28;20031;-54
2023/06/19 05:56:12;;;;;;;16.15;8.68;;;20.60;89.50;;;;;;5081107;28;20027;-55
2023/06/19 05:58:37;;;;;;;12.48;9.18;;;20.60;89.80;;;;;;5079412;28;20421;-55
2023/06/19 06:01:03;;;;;;;9.75;8.73;;;20.60;90.10;;;;;;5081281;28;20025;-55
2023/06/19 06:03:30;;;;;;;13.07;9.43;;;20.60;90.50;;;;;;5077832;28;20035;-55
2023/06/19 06:06:02;;;;;;;11.10;9.65;;;20.60;90.40;;;;;;5076162;28;20474;-54
2023/06/19 06:08:29;;;;;;;14.52;8.00;;;20.70;90.10;;;;;;5075082;28;20097;-54
2023/06/19 06:10:55;;;;;;;12.38;9.57;;;20.70;89.80;;;;;;5078207;28;20047;-55
2023/06/19 06:13:21;;;;;;;14.90;8.98;;;20.70;90.50;;;;;;5081690;28;20028;-54
2023/06/19 06:15:46;;;;;;;16.13;9.73;;;20.70;91.30;;;;;;5079912;28;20454;-55
2023/06/19 06:18:12;;;;;;;10.15;8.93;;;20.70;90.00;;;;;;5082615;28;20101;-55
2023/06/19 06:20:38;;;;;;;11.27;8.80;;;20.70;91.00;;;;;;5083127;28;20534;-55
2023/06/19 06:23:05;;;;;;;13.15;8.98;;;20.70;90.20;;;;;;5075890;28;20032;-55
2023/06/19 06:25:31;;;;;;;11.77;9.02;;;20.70;90.60;;;;;;5078497;28;20035;-54
2023/06/19 06:27:57;;;;;;;11.25;8.55;;;20.70;90.40;;;;;;5080108;28;20035;-54
2023/06/19 06:30:27;;;;;;;12.93;9.45;;;20.70;90.70;;;;;;5080502;28;20288;-54
2023/06/19 06:32:53;;;;;;;;;;;20.80;90.50;;;;;;5079742;28;20017;-54
2023/06/19 06:35:19;;;;;;;11.02;8.50;;;20.80;90.60;;;;;;5080541;28;19915;-55
2023/06/19 06:37:46;;;;;;;13.85;8.02;;;20.80;90.70;;;;;;5079376;28;20028;-55
2023/06/19 06:40:12;;;;;;;12.70;9.07;;;20.80;90.70;;;;;;5079442;28;20055;-55
2023/06/19 06:42:38;;;;;;;14.10;9.63;;;20.80;90.90;;;;;;5074034;28;20052;-55
2023/06/19 06:45:07;;;;;;;16.42;9.60;;;20.90;91.00;;;;;;5077875;28;20493;-56
2023/06/19 06:47:33;;;;;;;11.75;9.18;;;20.90;91.40;;;;;;5076636;28;20016;-56
2023/06/19 06:49:58;;;;;;;15.68;9.95;;;20.90;91.50;;;;;;5075154;28;20039;-56
2023/06/19 06:52:24;;;;;;;11.43;8.90;;;20.90;91.50;;;;;;5071912;28;20473;-56
2023/06/19 06:54:50;;;;;;;12.30;9.20;;;21.00;91.70;;;;;;5071383;28;20371;-56
2023/06/19 06:57:16;;;;;;;11.63;9.27;;;21.10;91.80;;;;;;5069896;28;20016;-56
2023/06/19 06:59:42;;;;;;;17.55;14.25;;;21.20;91.70;;;;;;5070377;28;20020;-56
2023/06/19 07:02:08;;;;;;;22.80;12.18;;;21.20;91.40;;;;;;5071655;28;20021;-56
2023/06/19 07:04:34;;;;;;;13.82;10.25;;;21.20;91.30;;;;;;5071657;28;20408;-56
2023/06/19 07:06:59;;;;;;;16.55;9.70;;;21.30;91.10;;;;;;5070055;28;20020;-57
2023/06/19 07:09:25;;;;;;;12.25;9.90;;;21.40;91.00;;;;;;5071151;28;20023;-56
2023/06/19 07:11:51;;;;;;;12.70;10.05;;;21.40;90.80;;;;;;5077586;28;20040;-56
2023/06/19 07:14:17;;;;;;;19.35;10.63;;;21.50;90.80;;;;;;5081536;28;20027;-56
2023/06/19 07:16:46;;;;;;;14.90;10.52;;;21.50;90.30;;;;;;5070559;28;20016;-56
2023/06/19 07:19:12;;;;;;;14.85;9.57;;;21.60;90.40;;;;;;5071481;28;20102;-57
2023/06/19 07:21:38;;;;;;;16.20;10.02;;;21.70;90.20;;;;;;5076760;28;20035;-56
2023/06/19 07:24:05;;;;;;;15.43;11.00;;;21.70;90.20;;;;;;5070870;28;20056;-56
2023/06/19 07:26:31;;;;;;;11.77;9.80;;;21.70;89.60;;;;;;5069515;28;20051;-56
2023/06/19 07:28:57;;;;;;;12.88;9.90;;;21.90;90.00;;;;;;5078129;28;20051;-56
2023/06/19 07:31:24;;;;;;;16.27;9.90;;;22.00;89.60;;;;;;5070975;28;20044;-56
2023/06/19 07:33:49;;;;;;;17.30;10.23;;;22.10;89.20;;;;;;5066098;28;20025;-56
2023/06/19 07:36:15;;;;;;;12.25;9.63;;;22.30;88.80;;;;;;5064872;28;20065;-56
2023/06/19 07:38:45;;;;;;;11.15;9.18;;;22.30;88.50;;;;;;5070913;28;20031;-56
2023/06/19 07:41:11;;;;;;;10.88;9.43;;;22.50;88.20;;;;;;5069409;28;20073;-56
2023/06/19 07:43:37;;;;;;;11.90;9.30;;;22.70;88.20;;;;;;5071256;28;20093;-56
2023/06/19 07:46:03;;;;;;;10.75;9.73;;;23.00;87.80;;;;;;5070248;28;20029;-56
2023/06/19 07:48:29;;;;;;;12.15;9.43;;;23.20;86.40;;;;;;5070841;28;20319;-56
2023/06/19 07:50:55;;;;;;;12.90;9.52;;;23.40;85.70;;;;;;5071134;28;20017;-56
2023/06/19 07:53:22;;;;;;;12.43;10.23;;;23.80;85.50;;;;;;5081007;28;20024;-56
2023/06/19 07:55:49;;;;;;;12.75;10.07;;;24.00;84.10;;;;;;5074350;28;20016;-56
2023/06/19 07:58:20;;;;;;;12.40;9.50;;;24.40;83.90;;;;;;5078605;28;20020;-56
2023/06/19 08:00:48;;;;;;;11.60;9.35;;;24.50;82.90;;;;;;5069400;28;20029;-57
2023/06/19 08:03:15;;;;;;;12.88;9.95;;;24.30;83.70;;;;;;5070153;28;20020;-56
2023/06/19 08:05:44;;;;;;;11.43;9.43;;;24.40;82.80;;;;;;5069885;28;20035;-56
2023/06/19 08:08:12;;;;;;;10.57;8.52;;;24.60;83.40;;;;;;5070057;28;20051;-56
2023/06/19 08:10:41;;;;;;;10.32;8.32;;;24.60;83.60;;;;;;5070187;28;20031;-56
2023/06/19 08:13:07;;;;;;;15.80;9.10;;;24.60;82.70;;;;;;5068759;28;20051;-56
2023/06/19 08:15:35;;;;;;;11.02;9.70;;;24.40;82.60;;;;;;5069914;28;20016;-56
2023/06/19 08:18:04;;;;;;;9.40;8.40;;;24.30;84.00;;;;;;5075322;28;20027;-56
2023/06/19 08:20:30;;;;;;;9.70;8.70;;;24.20;85.00;;;;;;5070142;28;20756;-57
2023/06/19 08:22:59;;;;;;;12.13;9.23;;;24.20;85.80;;;;;;5032688;28;20050;-56
2023/06/19 08:25:25;;;;;;;9.52;7.90;;;24.20;84.90;;;;;;5069853;28;20474;-57
2023/06/19 08:27:51;;;;;;;10.35;8.85;;;24.20;84.90;;;;;;5069618;28;20036;-56
2023/06/19 08:30:17;;;;;;;10.02;8.20;;;24.30;84.50;;;;;;5071811;28;20123;-57
2023/06/19 08:32:48;;;;;;;11.32;8.65;;;24.30;84.00;;;;;;5074679;28;20031;-57
2023/06/19 08:35:17;;;;;;;11.60;8.68;;;24.40;84.20;;;;;;5068976;28;20673;-56
2023/06/19 08:37:44;;;;;;;10.52;8.32;;;24.70;84.10;;;;;;5068240;28;20040;-57
2023/06/19 08:40:11;;;;;;;14.55;8.73;;;24.90;83.90;;;;;;5069510;28;20020;-57
2023/06/19 08:42:38;;;;;;;13.07;9.20;;;25.30;83.10;;;;;;5048573;28;20025;-57
2023/06/19 08:45:08;;;;;;;9.05;8.15;;;25.60;81.90;;;;;;5067488;28;20055;-56
2023/06/19 08:47:34;;;;;;;9.70;8.27;;;25.70;81.10;;;;;;5069546;28;20119;-56
2023/06/19 08:50:00;;;;;;;9.27;8.13;;;25.90;80.60;;;;;;5069621;28;20516;-56
2023/06/19 08:52:26;;;;;;;9.13;7.93;;;26.30;79.80;;;;;;5082159;28;20112;-56
2023/06/19 08:54:55;;;;;;;10.35;7.95;;;26.80;78.60;;;;;;5073250;28;20104;-57
2023/06/19 08:57:32;;;;;;;8.73;7.82;;;27.00;75.80;;;;;;5068739;28;20048;-58
2023/06/19 09:00:05;;;;;;;9.02;8.13;;;27.70;74.80;;;;;;5067652;28;20032;-56
2023/06/19 09:02:42;;;;;;;11.10;7.70;;;29.00;72.60;;;;;;5069299;28;20538;-57
2023/06/19 09:05:19;;;;;;;9.20;8.13;;;30.50;69.70;;;;;;5068997;28;20013;-57
2023/06/19 09:07:55;;;;;;;7.47;6.85;;;31.60;65.90;;;;;;5067663;28;20175;-57
2023/06/19 09:10:20;;;;;;;10.07;6.40;;;32.70;64.90;;;;;;5072507;28;20023;-56
2023/06/19 09:13:05;;;;;;;9.10;6.28;;;33.90;63.00;;;;;;5073988;28;20401;-58
2023/06/19 09:15:34;;;;;;;9.73;6.60;;;34.90;59.60;;;;;;5082824;28;20075;-57
2023/06/19 09:18:12;;;;;;;9.63;8.60;;;35.40;58.60;;;;;;5070381;28;20044;-59
2023/06/19 09:20:47;;;;;;;6.75;6.18;;;35.30;58.10;;;;;;5074855;28;20115;-57
2023/06/19 09:23:13;;;;;;;6.60;6.03;;;35.80;55.90;;;;;;5070712;28;20460;-57
2023/06/19 09:25:57;;;;;;;6.80;6.20;;;36.40;56.60;;;;;;5068857;28;20027;-57
2023/06/19 09:28:24;;;;;;;6.30;5.70;;;36.50;55.40;;;;;;5080461;28;20019;-56
2023/06/19 09:31:01;;;;;;;6.68;5.95;;;36.40;54.70;;;;;;5075876;28;20046;-57
2023/06/19 09:33:28;;;;;;;7.05;6.32;;;35.90;55.20;;;;;;5067151;28;20397;-56
2023/06/19 09:35:58;;;;;;;6.90;5.03;;;36.60;54.60;;;;;;5075132;28;20099;-57
2023/06/19 09:38:26;;;;;;;6.55;5.95;;;37.80;54.10;;;;;;5067281;28;20032;-57
2023/06/19 09:40:51;;;;;;;6.70;6.10;;;38.20;53.30;;;;;;5066973;28;20126;-57
2023/06/19 09:43:22;;;;;;;7.15;6.45;;;38.50;53.20;;;;;;5070013;28;20093;-57
2023/06/19 09:45:52;;;;;;;7.20;5.55;;;39.00;52.70;;;;;;5069208;28;20254;-57
2023/06/19 09:48:28;;;;;;;5.85;5.25;;;39.30;49.90;;;;;;5067648;28;20028;-57
2023/06/19 09:50:59;;;;;;;5.55;5.15;;;39.30;50.10;;;;;;5068008;28;20103;-57
2023/06/19 09:53:26;;;;;;;5.70;4.93;;;38.80;46.90;;;;;;5069066;28;20020;-57
2023/06/19 09:55:51;;;;;;;7.03;5.35;;;38.20;47.50;;;;;;5068525;28;20021;-57
2023/06/19 09:58:19;;;;;;;5.95;5.45;;;37.10;48.80;;;;;;5069305;28;20118;-57
2023/06/19 10:00:47;;;;;;;6.10;5.57;;;37.30;50.00;;;;;;5071167;28;20032;-57
2023/06/19 10:03:13;;;;;;;8.15;6.47;;;37.60;51.30;;;;;;5066707;28;20501;-57
2023/06/19 10:05:38;;;;;;;6.63;6.03;;;37.20;52.10;;;;;;5068191;28;20397;-57
2023/06/19 10:08:05;;;;;;;6.95;6.25;;;36.80;52.00;;;;;;5068225;28;20475;-57
2023/06/19 10:10:34;;;;;;;7.45;6.30;;;36.10;53.40;;;;;;5067885;28;20484;-57
2023/06/19 10:13:14;;;;;;;7.50;5.87;;;35.80;53.70;;;;;;5067886;28;20028;-57
2023/06/19 10:15:44;;;;;;;7.30;6.60;;;35.80;54.20;;;;;;5066257;28;20369;-57
2023/06/19 10:18:18;;;;;;;7.13;6.45;;;36.80;53.40;;;;;;5066011;28;20021;-57
2023/06/19 10:20:45;;;;;;;7.45;6.72;;;37.20;53.20;;;;;;5067711;28;20099;-57
2023/06/19 10:23:18;;;;;;;7.18;6.25;;;36.80;53.60;;;;;;5066488;28;20078;-57
2023/06/19 10:25:54;;;;;;;7.18;6.05;;;37.00;53.50;;;;;;5067766;28;20430;-57
2023/06/19 10:28:23;;;;;;;6.90;6.28;;;38.10;52.60;;;;;;5066814;28;20385;-58
2023/06/19 10:30:59;;;;;;;6.18;5.47;;;38.60;51.50;;;;;;5065695;28;20504;-57
2023/06/19 10:33:27;;;;;;;6.28;5.78;;;39.10;52.10;;;;;;5067189;28;20115;-57
2023/06/19 10:35:57;;;;;;;8.10;6.50;;;38.50;51.50;;;;;;5062789;28;20084;-57
2023/06/19 10:38:23;;;;;;;6.50;5.88;;;38.00;51.70;;;;;;5066469;28;20258;-57
2023/06/19 10:40:49;;;;;;;7.00;6.40;;;38.20;52.20;;;;;;5066737;28;20019;-57
2023/06/19 10:43:24;;;;;;;9.13;8.23;;;37.80;51.20;;;;;;5066533;28;20025;-57
2023/06/19 10:45:50;;;;;;;20.13;18.10;;;37.30;51.20;;;;;;5066522;28;20413;-58
2023/06/19 10:48:23;;;;;;;7.53;6.32;;;37.50;51.50;;;;;;5065231;28;20022;-57
2023/06/19 10:50:50;;;;;;;8.02;6.82;;;36.50;52.00;;;;;;5066807;28;20108;-57
2023/06/19 10:53:25;;;;;;;7.25;5.85;;;36.00;53.20;;;;;;5070610;28;20033;-57
2023/06/19 10:56:01;;;;;;;9.00;7.43;;;35.10;54.00;;;;;;5068585;28;20024;-57
2023/06/19 10:58:28;;;;;;;7.75;7.03;;;34.60;54.50;;;;;;5065046;28;20466;-57
2023/06/19 11:00:54;;;;;;;10.00;7.43;;;34.10;53.70;;;;;;5079658;28;20479;-57
2023/06/19 11:03:24;;;;;;;9.35;7.40;;;33.40;52.80;;;;;;5081655;28;20028;-57
2023/06/19 11:05:50;;;;;;;;;;;32.80;53.30;;;;;;5080457;28;20120;-56
2023/06/19 11:08:20;;;;;;;7.97;7.18;;;32.30;54.00;;;;;;5080528;28;19999;-56
2023/06/19 11:10:50;;;;;;;7.72;6.15;;;32.40;53.80;;;;;;5071398;28;20025;-56
2023/06/19 11:13:22;;;;;;;8.30;7.25;;;33.60;54.00;;;;;;5070918;28;20016;-56
2023/06/19 11:15:51;;;;;;;8.43;7.03;;;35.10;50.80;;;;;;5070998;28;20021;-57
2023/06/19 11:18:19;;;;;;;10.60;6.75;;;36.40;49.10;;;;;;5071611;28;20024;-56
2023/06/19 11:20:52;;;;;;;7.13;6.43;;;36.70;48.70;;;;;;5091509;28;20115;-56
2023/06/19 11:23:27;;;;;;;9.10;6.75;;;37.60;48.00;;;;;;5081431;28;20033;-57
2023/06/19 11:25:53;;;;;;;7.60;6.63;;;37.60;47.00;;;;;;5068234;28;20405;-57
2023/06/19 11:28:21;;;;;;;5.95;5.45;;;38.20;47.60;;;;;;5077702;28;20275;-57
2023/06/19 11:30:58;;;;;;;6.10;5.50;;;39.00;46.80;;;;;;5079224;28;20020;-57
2023/06/19 11:33:23;;;;;;;7.03;6.43;;;39.20;46.10;;;;;;5080755;28;20115;-57
2023/06/19 11:35:53;;;;;;;6.20;5.60;;;38.80;45.60;;;;;;5075910;28;20115;-57
2023/06/19 11:38:24;;;;;;;6.07;5.57;;;39.30;45.80;;;;;;5070794;28;20036;-57
2023/06/19 11:40:50;;;;;;;6.82;6.13;;;39.40;46.10;;;;;;5077675;28;20024;-57
2023/06/19 11:43:31;;;;;;;7.30;5.55;;;39.30;45.00;;;;;;5081300;28;20116;-57
2023/06/19 11:46:03;;;;;;;9.50;6.22;;;39.00;44.70;;;;;;5074543;28;20017;-57
2023/06/19 11:48:29;;;;;;;6.65;6.00;;;38.30;46.10;;;;;;5062183;28;20070;-57
2023/06/19 11:50:55;;;;;;;6.43;5.82;;;38.70;47.10;;;;;;5070191;28;20509;-58
2023/06/19 11:53:22;;;;;;;5.60;5.13;;;39.00;48.60;;;;;;5079289;28;20052;-57
2023/06/19 11:55:49;;;;;;;8.27;5.78;;;38.90;46.40;;;;;;5070673;28;20032;-57
2023/06/19 11:58:15;;;;;;;6.32;5.53;;;38.50;47.70;;;;;;5070029;28;20023;-58
2023/06/19 12:00:42;;;;;;;8.00;6.20;;;37.90;48.90;;;;;;5069090;28;20177;-57
2023/06/19 12:03:09;;;;;;;6.78;6.18;;;37.10;49.00;;;;;;5079122;28;20489;-57
2023/06/19 12:05:36;;;;;;;9.50;6.15;;;36.50;49.10;;;;;;5086056;28;20078;-56
2023/06/19 12:08:04;;;;;;;8.40;6.75;;;35.70;50.20;;;;;;5068562;28;20031;-57
2023/06/19 12:10:30;;;;;;;7.07;6.38;;;35.00;50.70;;;;;;5059788;28;20064;-57
2023/06/19 12:12:55;;;;;;;8.23;7.20;;;34.80;51.00;;;;;;5070480;28;20063;-57
2023/06/19 12:15:21;;;;;;;7.63;6.93;;;34.50;51.70;;;;;;5080873;28;20112;-58
2023/06/19 12:17:47;;;;;;;10.63;7.13;;;34.40;52.10;;;;;;5090264;28;20020;-57
2023/06/19 12:20:13;;;;;;;8.73;7.35;;;34.20;52.80;;;;;;5070988;28;20020;-57
2023/06/19 12:22:40;;;;;;;6.88;6.28;;;34.00;52.50;;;;;;5070400;28;20041;-57
2023/06/19 12:25:06;;;;;;;9.40;6.38;;;34.10;53.50;;;;;;5077063;28;20040;-57
2023/06/19 12:27:35;;;;;;;7.60;6.13;;;34.20;53.60;;;;;;5074075;28;20396;-57
2023/06/19 12:30:02;;;;;;;8.82;6.93;;;34.20;52.50;;;;;;5080717;28;20028;-57
2023/06/19 12:32:28;;;;;;;8.35;6.72;;;33.80;53.40;;;;;;5081303;28;20020;-57
2023/06/19 12:34:53;;;;;;;7.60;6.90;;;33.50;53.60;;;;;;5074969;28;20359;-56
2023/06/19 12:37:22;;;;;;;8.52;7.70;;;33.30;53.60;;;;;;5068211;28;20048;-58
2023/06/19 12:39:49;;;;;;;10.05;6.95;;;33.80;53.70;;;;;;5069915;28;20012;-57
2023/06/19 12:42:14;;;;;;;8.63;7.68;;;34.40;53.60;;;;;;5078568;28;20025;-57
2023/06/19 12:44:40;;;;;;;9.85;7.75;;;34.50;51.70;;;;;;5080299;28;20020;-57